Time;durP1;ratioP1;P1;durP2;ratioP2;P2;SDS_P1;SDS_P2;PMS_P1;PMS_P2;Temp;Humidity;BMP_temperature;BMP_pressure;BME280_temperature;BME280_humidity;BME280_pressure;Samples;Min_cycle;Max_cycle;Signal;HPM_P1;HPM_P2
2023/12/01 00:01:33;;;;;;;8.98;8.13;;;;;;;;;;4971789;28;20034;-76
2023/12/01 00:03:59;;;;;;;8.13;7.35;;;;;;;;;;4989733;28;20073;-76
2023/12/01 00:06:25;;;;;;;7.45;6.75;;;;;;;;;;4992698;28;20038;-75
2023/12/01 00:08:51;;;;;;;8.82;8.05;;;;;;;;;;4957310;28;20050;-76
2023/12/01 00:11:17;;;;;;;5.13;4.60;;;;;;;;;;4990454;28;20062;-76
2023/12/01 00:13:43;;;;;;;6.13;5.55;;;;;;;;;;4956022;28;20046;-77
2023/12/01 00:16:09;;;;;;;7.45;6.68;;;;;;;;;;4973326;28;20030;-77
2023/12/01 00:18:36;;;;;;;5.05;4.65;;;;;;;;;;4973159;28;20046;-75
2023/12/01 00:21:02;;;;;;;6.10;5.57;;;;;;;;;;4992124;28;20046;-76
2023/12/01 00:23:29;;;;;;;5.53;5.03;;;;;;;;;;4990719;28;20080;-76
2023/12/01 00:25:55;;;;;;;7.28;5.57;;;;;;;;;;4994005;28;20050;-76
2023/12/01 00:28:20;;;;;;;7.43;5.93;;;;;;;;;;4991549;28;20073;-75
2023/12/01 00:30:46;;;;;;;6.22;5.55;;;;;;;;;;4995580;28;20042;-75
2023/12/01 00:33:12;;;;;;;8.05;5.47;;;;;;;;;;4990909;28;20528;-76
2023/12/01 00:35:38;;;;;;;9.18;7.28;;;;;;;;;;4990065;28;20069;-75
2023/12/01 00:38:05;;;;;;;6.85;5.47;;;;;;;;;;4990418;28;20089;-76
2023/12/01 00:40:32;;;;;;;8.68;6.25;;;;;;;;;;4956508;28;20058;-75
2023/12/01 00:42:58;;;;;;;4.75;4.35;;;;;;;;;;4989817;28;20049;-76
2023/12/01 00:45:24;;;;;;;3.33;3.00;;;;;;;;;;4988763;28;20050;-75
2023/12/01 00:47:50;;;;;;;8.25;6.53;;;;;;;;;;4989864;28;20038;-77
2023/12/01 00:50:16;;;;;;;4.72;4.32;;;;;;;;;;4989833;28;20062;-76
2023/12/01 00:52:42;;;;;;;5.78;5.28;;;;;;;;;;4973687;28;20042;-76
2023/12/01 00:55:08;;;;;;;8.02;7.22;;;;;;;;;;4993519;28;20042;-78
2023/12/01 00:57:34;;;;;;;6.50;5.90;;;;;;;;;;4993415;28;20038;-75
2023/12/01 01:00:01;;;;;;;8.15;6.55;;;;;;;;;;4978507;28;20128;-76
2023/12/01 01:02:27;;;;;;;6.70;5.90;;;;;;;;;;4993607;28;20061;-77
2023/12/01 01:04:53;;;;;;;7.28;5.90;;;;;;;;;;4975274;28;20046;-77
2023/12/01 01:07:19;;;;;;;6.35;4.95;;;;;;;;;;4959190;28;20547;-77
2023/12/01 01:09:45;;;;;;;10.60;6.13;;;;;;;;;;4960088;28;20050;-77
2023/12/01 01:12:11;;;;;;;11.05;8.27;;;;;;;;;;4992252;28;20076;-77
2023/12/01 01:14:38;;;;;;;9.15;8.20;;;;;;;;;;4991394;28;20125;-76
2023/12/01 01:17:04;;;;;;;11.55;8.52;;;;;;;;;;4994421;28;20054;-76
2023/12/01 01:19:30;;;;;;;9.75;7.72;;;;;;;;;;4992322;28;20046;-75
2023/12/01 01:21:56;;;;;;;10.63;8.35;;;;;;;;;;4975840;28;20495;-75
2023/12/01 01:24:22;;;;;;;6.10;5.57;;;;;;;;;;4971271;28;20505;-74
2023/12/01 01:26:48;;;;;;;7.05;6.13;;;;;;;;;;4992875;28;20041;-75
2023/12/01 01:29:15;;;;;;;6.10;5.50;;;;;;;;;;4959905;28;20054;-76
2023/12/01 01:31:41;;;;;;;7.53;6.47;;;;;;;;;;4993126;28;20038;-76
2023/12/01 01:34:07;;;;;;;6.85;5.65;;;;;;;;;;4959295;28;20062;-76
2023/12/01 01:36:34;;;;;;;7.18;6.50;;;;;;;;;;4975363;28;20041;-76
2023/12/01 01:39:00;;;;;;;6.95;6.28;;;;;;;;;;4992808;28;20142;-75
2023/12/01 01:41:26;;;;;;;8.15;6.95;;;;;;;;;;4992447;28;20125;-77
2023/12/01 01:43:52;;;;;;;7.78;6.25;;;;;;;;;;4993118;28;20729;-78
2023/12/01 01:46:18;;;;;;;10.95;7.25;;;;;;;;;;4975043;28;20049;-77
2023/12/01 01:48:44;;;;;;;7.35;6.47;;;;;;;;;;4992461;28;20038;-78
2023/12/01 01:51:10;;;;;;;6.82;5.07;;;;;;;;;;4992686;28;20366;-76
2023/12/01 01:53:37;;;;;;;5.28;4.75;;;;;;;;;;4975287;28;20049;-78
2023/12/01 01:56:03;;;;;;;6.45;5.82;;;;;;;;;;4972964;28;20057;-77
2023/12/01 01:58:29;;;;;;;7.75;6.10;;;;;;;;;;4974307;28;20068;-77
2023/12/01 02:00:55;;;;;;;10.32;9.35;;;;;;;;;;4992367;28;20517;-77
2023/12/01 02:03:23;;;;;;;10.55;8.52;;;;;;;;;;4992099;28;20477;-77
2023/12/01 02:05:49;;;;;;;8.02;6.72;;;;;;;;;;4992375;28;20112;-78
2023/12/01 02:08:22;;;;;;;10.60;9.50;;;;;;;;;;4980239;28;20035;-77
2023/12/01 02:10:49;;;;;;;15.18;10.07;;;;;;;;;;4992427;28;20100;-77
2023/12/01 02:13:15;;;;;;;10.35;9.15;;;;;;;;;;4959504;28;20460;-77
2023/12/01 02:15:42;;;;;;;6.93;6.22;;;;;;;;;;4974593;28;20042;-78
2023/12/01 02:18:21;;;;;;;12.43;8.75;;;;;;;;;;4958664;28;20536;-78
2023/12/01 02:20:48;;;;;;;9.32;8.35;;;;;;;;;;4984530;28;20061;-78
2023/12/01 02:23:14;;;;;;;6.43;5.65;;;;;;;;;;4992574;28;20050;-76
2023/12/01 02:25:41;;;;;;;12.55;10.07;;;;;;;;;;4992072;28;20093;-76
2023/12/01 02:28:07;;;;;;;10.43;9.23;;;;;;;;;;4991671;28;20073;-76
2023/12/01 02:30:33;;;;;;;5.47;4.97;;;;;;;;;;4941494;28;20074;-77
2023/12/01 02:33:00;;;;;;;10.00;7.75;;;;;;;;;;4973467;28;20058;-77
2023/12/01 02:35:29;;;;;;;9.85;8.48;;;;;;;;;;4991456;28;20057;-75
2023/12/01 02:37:56;;;;;;;10.68;8.93;;;;;;;;;;4990528;28;20042;-76
2023/12/01 02:40:23;;;;;;;8.48;7.47;;;;;;;;;;4992027;28;20104;-76
2023/12/01 02:42:49;;;;;;;8.38;6.15;;;;;;;;;;4973837;28;20062;-76
2023/12/01 02:45:16;;;;;;;9.65;6.85;;;;;;;;;;4974517;28;20034;-76
2023/12/01 02:47:45;;;;;;;8.23;7.22;;;;;;;;;;4990142;28;20046;-76
2023/12/01 02:50:12;;;;;;;7.97;5.38;;;;;;;;;;4989098;28;20531;-76
2023/12/01 02:52:38;;;;;;;7.88;6.30;;;;;;;;;;4975395;28;20046;-76
2023/12/01 02:55:04;;;;;;;10.27;6.60;;;;;;;;;;4990809;28;20066;-76
2023/12/01 02:57:30;;;;;;;8.00;6.90;;;;;;;;;;4992268;28;20042;-76
2023/12/01 02:59:56;;;;;;;8.50;7.38;;;;;;;;;;4975152;28;20042;-75
2023/12/01 03:02:23;;;;;;;8.10;6.97;;;;;;;;;;4964387;28;20648;-75
2023/12/01 03:04:50;;;;;;;10.82;8.70;;;;;;;;;;4958467;28;20105;-76
2023/12/01 03:07:16;;;;;;;9.18;8.25;;;;;;;;;;4991306;28;20053;-76
2023/12/01 03:09:42;;;;;;;7.63;6.55;;;;;;;;;;4991226;28;20038;-76
2023/12/01 03:12:08;;;;;;;12.35;8.10;;;;;;;;;;4993427;28;20034;-75
2023/12/01 03:14:36;;;;;;;11.13;7.97;;;;;;;;;;4958919;28;20105;-75
2023/12/01 03:17:03;;;;;;;5.60;5.13;;;;;;;;;;5000256;28;20230;-75
2023/12/01 03:19:29;;;;;;;10.57;9.05;;;;;;;;;;5005425;28;20046;-75
2023/12/01 03:21:55;;;;;;;7.20;6.40;;;;;;;;;;4991294;28;20038;-75
2023/12/01 03:24:21;;;;;;;8.52;6.53;;;;;;;;;;4991291;28;20046;-76
2023/12/01 03:26:47;;;;;;;9.13;7.07;;;;;;;;;;4990616;28;20125;-75
2023/12/01 03:29:13;;;;;;;11.93;7.72;;;;;;;;;;4989945;28;20136;-77
2023/12/01 03:31:40;;;;;;;9.82;5.80;;;;;;;;;;4972879;28;20042;-76
2023/12/01 03:34:06;;;;;;;8.65;6.93;;;;;;;;;;4990598;28;20061;-76
2023/12/01 03:36:32;;;;;;;8.55;6.95;;;;;;;;;;4990729;28;20065;-76
2023/12/01 03:38:58;;;;;;;13.32;9.35;;;;;;;;;;4973174;28;20042;-75
2023/12/01 03:41:25;;;;;;;9.30;5.72;;;;;;;;;;4990031;28;20104;-75
2023/12/01 03:43:51;;;;;;;6.97;6.28;;;;;;;;;;4991770;28;20053;-75
2023/12/01 03:46:17;;;;;;;10.30;7.65;;;;;;;;;;4995206;28;20050;-76
2023/12/01 03:48:43;;;;;;;13.55;9.18;;;;;;;;;;4992716;28;20038;-76
2023/12/01 03:51:09;;;;;;;6.45;5.78;;;;;;;;;;4989535;28;20053;-76
2023/12/01 03:53:36;;;;;;;8.45;7.15;;;;;;;;;;4990511;28;20042;-75
2023/12/01 03:56:02;;;;;;;7.88;6.68;;;;;;;;;;4954095;28;20134;-76
2023/12/01 03:58:29;;;;;;;9.95;8.93;;;;;;;;;;4989352;28;20048;-77
2023/12/01 04:00:54;;;;;;;8.68;6.90;;;;;;;;;;4983592;28;20094;-76
2023/12/01 04:03:21;;;;;;;9.63;7.07;;;;;;;;;;4969369;28;20054;-76
2023/12/01 04:05:47;;;;;;;9.90;7.70;;;;;;;;;;4990217;28;20034;-77
2023/12/01 04:08:13;;;;;;;10.75;7.72;;;;;;;;;;4988395;28;20781;-75
2023/12/01 04:10:40;;;;;;;16.27;9.25;;;;;;;;;;4972656;28;20038;-75
2023/12/01 04:13:09;;;;;;;11.13;8.95;;;;;;;;;;4990196;28;20134;-75
2023/12/01 04:15:39;;;;;;;14.95;10.57;;;;;;;;;;4973659;28;20046;-74
2023/12/01 04:18:08;;;;;;;15.18;9.18;;;;;;;;;;4990035;28;20046;-74
2023/12/01 04:20:36;;;;;;;11.20;8.85;;;;;;;;;;4990605;28;20068;-75
2023/12/01 04:23:11;;;;;;;12.35;8.35;;;;;;;;;;4959608;28;20061;-74
2023/12/01 04:25:38;;;;;;;10.95;7.18;;;;;;;;;;4991782;28;20544;-75
2023/12/01 04:28:04;;;;;;;10.27;7.35;;;;;;;;;;4992475;28;20050;-74
2023/12/01 04:30:31;;;;;;;8.43;6.82;;;;;;;;;;4992933;28;20400;-77
2023/12/01 04:32:57;;;;;;;10.23;7.53;;;;;;;;;;4994115;28;20042;-75
2023/12/01 04:35:23;;;;;;;9.00;6.90;;;;;;;;;;4960832;28;20228;-75
2023/12/01 04:37:49;;;;;;;11.70;7.90;;;;;;;;;;4977209;28;20124;-75
2023/12/01 04:40:15;;;;;;;13.55;9.40;;;;;;;;;;4994221;28;20485;-75
2023/12/01 04:42:45;;;;;;;10.40;8.07;;;;;;;;;;4993846;28;20133;-74
2023/12/01 04:45:14;;;;;;;16.55;11.07;;;;;;;;;;4993572;28;20045;-77
2023/12/01 04:47:43;;;;;;;13.02;8.70;;;;;;;;;;4984948;28;20093;-74
2023/12/01 04:50:13;;;;;;;12.85;9.95;;;;;;;;;;4988751;28;20054;-74
2023/12/01 04:52:46;;;;;;;10.23;7.65;;;;;;;;;;4993938;28;20054;-75
2023/12/01 04:55:13;;;;;;;11.00;8.57;;;;;;;;;;4972235;28;20050;-74
2023/12/01 04:57:39;;;;;;;16.77;10.35;;;;;;;;;;4992561;28;20096;-74
2023/12/01 05:00:21;;;;;;;12.18;9.10;;;;;;;;;;4975978;28;20042;-75
2023/12/01 05:02:48;;;;;;;14.55;9.40;;;;;;;;;;4970257;28;20644;-75
2023/12/01 05:05:15;;;;;;;14.98;9.88;;;;;;;;;;4998154;28;20125;-76
2023/12/01 05:07:41;;;;;;;10.88;7.40;;;;;;;;;;4985452;28;20228;-75
2023/12/01 05:10:14;;;;;;;14.88;9.98;;;;;;;;;;4968977;28;20073;-74
2023/12/01 05:12:41;;;;;;;16.25;9.55;;;;;;;;;;4978221;28;20038;-74
2023/12/01 05:15:15;;;;;;;18.42;12.00;;;;;;;;;;4995951;28;20054;-74
2023/12/01 05:17:42;;;;;;;13.30;9.63;;;;;;;;;;4994522;28;20046;-74
2023/12/01 05:20:15;;;;;;;12.40;7.15;;;;;;;;;;4994290;28;20196;-74
2023/12/01 05:22:42;;;;;;;10.25;7.22;;;;;;;;;;4994686;28;20042;-74
2023/12/01 05:25:13;;;;;;;11.77;7.32;;;;;;;;;;4976468;28;20047;-75
2023/12/01 05:27:47;;;;;;;6.55;5.93;;;;;;;;;;4976526;28;20068;-75
2023/12/01 05:30:14;;;;;;;13.98;11.10;;;;;;;;;;4994335;28;20066;-75
2023/12/01 05:32:43;;;;;;;13.57;10.20;;;;;;;;;;4978704;28;20125;-76
2023/12/01 05:35:12;;;;;;;10.55;6.95;;;;;;;;;;4960746;28;20046;-74
2023/12/01 05:37:39;;;;;;;9.05;7.30;;;;;;;;;;4994412;28;20046;-74
2023/12/01 05:40:09;;;;;;;10.75;7.40;;;;;;;;;;4960288;28;20100;-75
2023/12/01 05:42:36;;;;;;;8.13;7.20;;;;;;;;;;4976908;28;20038;-75
2023/12/01 05:45:04;;;;;;;10.43;7.85;;;;;;;;;;4994300;28;20150;-75
2023/12/01 05:47:31;;;;;;;20.95;10.75;;;;;;;;;;4977930;28;20042;-75
2023/12/01 05:49:57;;;;;;;12.52;9.10;;;;;;;;;;5002810;28;20190;-75
2023/12/01 05:52:23;;;;;;;14.63;10.20;;;;;;;;;;5004481;28;20069;-75
2023/12/01 05:54:49;;;;;;;13.10;9.93;;;;;;;;;;4986886;28;20046;-74
2023/12/01 05:57:18;;;;;;;14.75;8.82;;;;;;;;;;5003525;28;20093;-79
2023/12/01 05:59:44;;;;;;;12.82;8.45;;;;;;;;;;5000218;28;20077;-80
2023/12/01 06:02:11;;;;;;;16.67;11.50;;;;;;;;;;4993192;28;20081;-80
2023/12/01 06:04:38;;;;;;;6.13;5.57;;;;;;;;;;5002295;28;20050;-78
2023/12/01 06:07:07;;;;;;;14.80;10.52;;;;;;;;;;4981825;28;20038;-78
2023/12/01 06:09:34;;;;;;;15.27;10.40;;;;;;;;;;5012282;28;20434;-78
2023/12/01 06:12:01;;;;;;;14.10;9.32;;;;;;;;;;5004315;28;20109;-81
2023/12/01 06:14:27;;;;;;;16.00;11.07;;;;;;;;;;5007630;28;20042;-81
2023/12/01 06:16:53;;;;;;;13.55;8.98;;;;;;;;;;5006491;28;20121;-82
2023/12/01 06:19:20;;;;;;;11.25;8.23;;;;;;;;;;5001233;28;20046;-82
2023/12/01 06:21:46;;;;;;;11.52;9.23;;;;;;;;;;5016230;28;20053;-83
2023/12/01 07:24:22;;;;;;;12.18;9.27;;;;;;;;;;4585199;23;20047;-82
2023/12/01 07:35:22;;;;;;;10.55;8.80;;;;;;;;;;4961074;29;19938;-83
2023/12/01 07:37:51;;;;;;;11.90;7.88;;;;;;;;;;4956095;29;20690;-83
2023/12/01 07:40:19;;;;;;;11.63;9.60;;;;;;;;;;5271225;23;20048;-83
2023/12/01 07:42:46;;;;;;;11.43;7.70;;;;;;;;;;5431583;23;21070;-80
2023/12/01 07:45:17;;;;;;;9.85;7.85;;;;;;;;;;4998419;28;20031;-84
2023/12/01 07:47:43;;;;;;;15.05;10.60;;;;;;;;;;5157555;23;21413;-78
2023/12/01 07:50:17;;;;;;;10.50;7.72;;;;;;;;;;5370959;23;20320;31
2023/12/01 07:52:43;;;;;;;10.25;7.78;;;;;;;;;;5020200;23;20076;-81
2023/12/01 07:55:09;;;;;;;14.32;10.45;;;;;;;;;;4973017;29;20262;-82
2023/12/01 07:57:36;;;;;;;10.10;9.13;;;;;;;;;;4966274;28;20310;-82
2023/12/01 08:00:03;;;;;;;11.35;9.32;;;;;;;;;;4985210;28;20031;-79
2023/12/01 08:02:32;;;;;;;9.95;7.78;;;;;;;;;;4992941;28;20031;-82
2023/12/01 08:04:59;;;;;;;7.97;5.88;;;;;;;;;;4969816;28;20057;-82
2023/12/01 08:07:25;;;;;;;10.50;8.52;;;;;;;;;;4961147;28;20039;-78
2023/12/01 08:09:53;;;;;;;12.48;6.53;;;;;;;;;;4950215;28;20525;-79
2023/12/01 08:12:19;;;;;;;14.45;10.27;;;;;;;;;;4962025;29;20054;-79
2023/12/01 08:14:45;;;;;;;12.18;7.20;;;;;;;;;;4955284;29;20039;-78
2023/12/01 08:17:11;;;;;;;9.75;8.10;;;;;;;;;;4940361;29;20155;-79
2023/12/01 08:19:38;;;;;;;11.05;7.88;;;;;;;;;;4950503;29;20098;-79
2023/12/01 08:22:04;;;;;;;11.48;8.43;;;;;;;;;;4950843;29;20047;-79
2023/12/01 08:24:32;;;;;;;12.27;8.60;;;;;;;;;;4951679;29;20059;-79
2023/12/01 08:27:00;;;;;;;9.90;7.40;;;;;;;;;;4951369;29;20668;-78
2023/12/01 08:29:26;;;;;;;10.68;8.85;;;;;;;;;;4928085;29;20644;-79
2023/12/01 08:31:52;;;;;;;9.30;7.60;;;;;;;;;;4954237;29;20054;-79
2023/12/01 08:34:18;;;;;;;12.48;8.85;;;;;;;;;;4937194;29;20110;-79
2023/12/01 08:36:45;;;;;;;9.07;7.38;;;;;;;;;;4950769;29;20107;-80
2023/12/01 08:39:12;;;;;;;11.30;7.00;;;;;;;;;;4955088;29;20050;-80
2023/12/01 08:41:38;;;;;;;10.27;7.78;;;;;;;;;;4964931;28;20033;-77
2023/12/01 08:44:04;;;;;;;15.45;9.63;;;;;;;;;;4973084;28;20513;-78
2023/12/01 08:46:30;;;;;;;16.45;11.88;;;;;;;;;;4973293;28;20049;-78
2023/12/01 08:48:56;;;;;;;10.35;8.73;;;;;;;;;;4970545;28;20046;-79
2023/12/01 08:51:22;;;;;;;12.30;9.48;;;;;;;;;;4971753;28;20050;-79
2023/12/01 08:53:49;;;;;;;11.85;8.88;;;;;;;;;;4944459;28;20038;-79
2023/12/01 08:56:15;;;;;;;11.02;8.95;;;;;;;;;;4975693;28;20046;-80
2023/12/01 08:58:41;;;;;;;12.60;8.02;;;;;;;;;;4961118;28;20512;-79
2023/12/01 09:01:08;;;;;;;10.68;8.80;;;;;;;;;;4987214;28;20050;-79
2023/12/01 09:03:34;;;;;;;9.90;8.23;;;;;;;;;;4982386;28;20059;-79
2023/12/01 09:06:01;;;;;;;10.48;8.38;;;;;;;;;;4975432;28;20053;-78
2023/12/01 09:08:27;;;;;;;15.20;11.52;;;;;;;;;;4976834;28;20051;-80
2023/12/01 09:10:53;;;;;;;14.70;9.95;;;;;;;;;;4978896;28;20089;-81
2023/12/01 09:13:19;;;;;;;23.77;9.68;;;;;;;;;;4949699;28;20097;-81
2023/12/01 09:15:45;;;;;;;8.93;7.32;;;;;;;;;;4977945;28;20533;-81
2023/12/01 09:18:12;;;;;;;12.10;9.35;;;;;;;;;;4963406;28;20649;-81
2023/12/01 09:20:38;;;;;;;12.98;9.90;;;;;;;;;;4974870;28;20035;-81
2023/12/01 09:23:05;;;;;;;7.55;6.82;;;;;;;;;;4972939;28;20066;-80
2023/12/01 09:25:32;;;;;;;7.78;6.28;;;;;;;;;;4980274;28;20026;-81
2023/12/01 09:27:58;;;;;;;13.15;9.75;;;;;;;;;;4979724;28;20054;-80
2023/12/01 09:30:24;;;;;;;11.40;9.50;;;;;;;;;;4973243;28;20109;-80
2023/12/01 09:32:50;;;;;;;13.40;9.40;;;;;;;;;;4972696;28;20157;-80
2023/12/01 09:35:19;;;;;;;10.05;7.65;;;;;;;;;;4963214;28;20148;-80
2023/12/01 09:37:45;;;;;;;17.70;8.60;;;;;;;;;;4978488;28;20489;-80
2023/12/01 09:40:11;;;;;;;15.25;9.23;;;;;;;;;;4966095;28;20078;-80
2023/12/01 09:42:38;;;;;;;17.80;12.35;;;;;;;;;;4967138;28;20062;-81
2023/12/01 09:45:04;;;;;;;11.88;8.95;;;;;;;;;;4960520;28;20413;-81
2023/12/01 09:47:33;;;;;;;8.85;7.90;;;;;;;;;;4974219;28;20046;-81
2023/12/01 09:49:59;;;;;;;8.30;7.10;;;;;;;;;;4936053;28;20054;-81
2023/12/01 09:52:26;;;;;;;10.27;7.57;;;;;;;;;;4963529;28;20521;-81
2023/12/01 09:54:52;;;;;;;16.02;10.70;;;;;;;;;;4981483;28;20039;-81
2023/12/01 09:57:18;;;;;;;12.23;9.55;;;;;;;;;;4981727;28;20129;-81
2023/12/01 09:59:44;;;;;;;11.05;8.82;;;;;;;;;;4981498;28;20066;-80
2023/12/01 10:02:10;;;;;;;13.95;9.85;;;;;;;;;;4987962;28;20059;-81
2023/12/01 10:04:36;;;;;;;14.73;9.38;;;;;;;;;;4979433;28;20042;-81
2023/12/01 10:07:03;;;;;;;14.32;9.43;;;;;;;;;;4979461;28;20416;-79
2023/12/01 10:09:38;;;;;;;22.92;12.40;;;;;;;;;;4979297;28;20068;-81
2023/12/01 10:12:08;;;;;;;10.57;8.30;;;;;;;;;;4979036;28;20426;-81
2023/12/01 10:14:35;;;;;;;7.30;6.00;;;;;;;;;;4971347;28;20110;-81
2023/12/01 10:17:03;;;;;;;11.43;8.93;;;;;;;;;;4958913;28;20057;-81
2023/12/01 10:19:33;;;;;;;13.35;8.88;;;;;;;;;;4961742;28;20101;-80
2023/12/01 10:21:59;;;;;;;10.80;8.82;;;;;;;;;;4979017;28;20086;-81
2023/12/01 10:24:25;;;;;;;8.15;7.45;;;;;;;;;;4984545;28;20070;-80
2023/12/01 10:26:52;;;;;;;7.93;7.13;;;;;;;;;;4982247;28;20453;-80
2023/12/01 10:29:34;;;;;;;11.25;7.65;;;;;;;;;;4977001;28;20058;-79
2023/12/01 10:32:04;;;;;;;7.65;6.38;;;;;;;;;;4957727;28;20054;-80
2023/12/01 10:34:30;;;;;;;11.10;8.45;;;;;;;;;;4957370;28;20437;-80
2023/12/01 10:36:56;;;;;;;7.55;5.85;;;;;;;;;;4974691;28;20100;-80
2023/12/01 10:39:27;;;;;;;9.02;7.45;;;;;;;;;;4974250;28;20074;-77
2023/12/01 10:41:56;;;;;;;10.55;6.97;;;;;;;;;;4975021;28;20406;-80
2023/12/01 10:44:24;;;;;;;6.28;5.63;;;;;;;;;;4956441;28;20049;-79
2023/12/01 10:46:50;;;;;;;11.70;9.50;;;;;;;;;;4976696;28;20043;-80
2023/12/01 10:49:19;;;;;;;8.32;7.35;;;;;;;;;;4977517;28;20109;-81
2023/12/01 10:51:46;;;;;;;9.18;8.07;;;;;;;;;;4977627;28;20054;-80
2023/12/01 10:54:12;;;;;;;11.18;9.65;;;;;;;;;;4958976;28;20389;-80
2023/12/01 10:56:43;;;;;;;9.50;7.82;;;;;;;;;;4975486;28;20050;-80
2023/12/01 10:59:09;;;;;;;10.90;6.63;;;;;;;;;;4957556;28;20046;-80
2023/12/01 11:01:35;;;;;;;9.63;7.57;;;;;;;;;;4972303;28;20523;-80
2023/12/01 11:04:01;;;;;;;9.30;8.45;;;;;;;;;;4943519;28;20532;-79
2023/12/01 11:06:32;;;;;;;9.45;7.80;;;;;;;;;;4973518;28;20047;-80
2023/12/01 11:08:58;;;;;;;13.13;10.23;;;;;;;;;;4978718;28;20058;-80
2023/12/01 11:11:44;;;;;;;15.57;9.85;;;;;;;;;;4974971;28;20043;-79
2023/12/01 11:14:20;;;;;;;10.80;9.05;;;;;;;;;;4953586;28;20460;-79
2023/12/01 11:16:49;;;;;;;13.18;7.63;;;;;;;;;;4956574;28;20038;-80
2023/12/01 11:19:16;;;;;;;16.48;11.93;;;;;;;;;;4957024;28;20043;-80
2023/12/01 11:21:42;;;;;;;9.88;8.60;;;;;;;;;;4975220;28;20049;-78
2023/12/01 11:24:34;;;;;;;9.98;8.18;;;;;;;;;;4959535;28;20054;-79
2023/12/01 11:27:03;;;;;;;17.75;12.05;;;;;;;;;;4960338;28;20232;-79
2023/12/01 11:29:33;;;;;;;13.52;10.75;;;;;;;;;;4976052;28;20047;-79
2023/12/01 11:31:59;;;;;;;16.20;13.30;;;;;;;;;;4970667;28;20111;-79
2023/12/01 11:34:25;;;;;;;15.90;12.50;;;;;;;;;;4959277;28;20043;-78
2023/12/01 11:36:52;;;;;;;18.27;12.20;;;;;;;;;;4963611;28;20074;-79
2023/12/01 11:39:29;;;;;;;15.38;10.18;;;;;;;;;;4979650;28;20041;-79
2023/12/01 11:42:02;;;;;;;19.98;13.73;;;;;;;;;;4961450;28;20134;-79
2023/12/01 11:44:34;;;;;;;14.90;11.02;;;;;;;;;;4977506;28;20540;-79
2023/12/01 11:47:02;;;;;;;17.27;12.70;;;;;;;;;;4969670;28;20030;-79
2023/12/01 11:49:30;;;;;;;15.18;11.10;;;;;;;;;;4977361;28;20082;-79
2023/12/01 11:51:59;;;;;;;9.50;8.40;;;;;;;;;;4962992;28;20066;-78
2023/12/01 11:54:26;;;;;;;10.27;8.98;;;;;;;;;;4980271;28;20046;-79
2023/12/01 11:56:53;;;;;;;20.88;12.00;;;;;;;;;;4981565;28;20034;-79
2023/12/01 11:59:19;;;;;;;18.02;11.38;;;;;;;;;;4979037;28;20047;-79
2023/12/01 12:01:46;;;;;;;27.35;14.35;;;;;;;;;;4963254;28;20035;-79
2023/12/01 12:04:16;;;;;;;7.80;7.00;;;;;;;;;;4947297;28;20148;-80
2023/12/01 12:06:45;;;;;;;14.13;11.40;;;;;;;;;;4967126;28;20047;-79
2023/12/01 12:09:17;;;;;;;17.30;11.60;;;;;;;;;;4975633;28;20501;-79
2023/12/01 12:11:53;;;;;;;13.93;8.30;;;;;;;;;;4978499;28;20039;-78
2023/12/01 12:14:22;;;;;;;16.13;12.07;;;;;;;;;;4975762;28;20054;-79
2023/12/01 12:16:49;;;;;;;10.98;8.98;;;;;;;;;;4983544;28;20046;-79
2023/12/01 12:19:15;;;;;;;12.30;8.65;;;;;;;;;;4963680;28;20057;-80
2023/12/01 12:21:41;;;;;;;15.95;13.45;;;;;;;;;;4981020;28;20078;-79
2023/12/01 12:24:07;;;;;;;17.63;10.70;;;;;;;;;;4982239;28;20661;-80
2023/12/01 12:26:33;;;;;;;23.73;7.68;;;;;;;;;;4981738;28;20046;-79
2023/12/01 12:29:00;;;;;;;10.45;8.90;;;;;;;;;;4982195;28;20043;-80
2023/12/01 12:31:27;;;;;;;16.25;12.55;;;;;;;;;;4981981;28;20051;-80
2023/12/01 12:33:53;;;;;;;14.60;11.55;;;;;;;;;;4979889;28;20523;-79
2023/12/01 12:36:20;;;;;;;13.90;9.23;;;;;;;;;;4978974;28;20103;-79
2023/12/01 12:38:47;;;;;;;13.75;8.43;;;;;;;;;;4979148;28;20047;-80
2023/12/01 12:41:23;;;;;;;14.10;7.00;;;;;;;;;;4978379;28;20050;-80
2023/12/01 12:43:53;;;;;;;11.77;8.43;;;;;;;;;;4977428;28;20153;-79
2023/12/01 12:46:19;;;;;;;8.70;7.65;;;;;;;;;;4980015;28;20537;-80
2023/12/01 12:48:45;;;;;;;9.15;8.27;;;;;;;;;;4984252;28;20118;-80
2023/12/01 12:51:16;;;;;;;8.70;6.90;;;;;;;;;;4986269;28;20038;-80
2023/12/01 12:53:43;;;;;;;9.25;7.03;;;;;;;;;;4991608;28;20207;-78
2023/12/01 12:56:10;;;;;;;13.65;9.10;;;;;;;;;;4974909;28;20038;-79
2023/12/01 12:58:36;;;;;;;18.58;12.02;;;;;;;;;;4991329;28;20066;-79
2023/12/01 13:01:04;;;;;;;24.13;11.15;;;;;;;;;;4989767;28;20126;-79
2023/12/01 13:03:30;;;;;;;16.27;10.75;;;;;;;;;;4972501;28;20070;-79
2023/12/01 13:05:56;;;;;;;13.98;10.65;;;;;;;;;;4984028;28;20042;-79
2023/12/01 13:08:22;;;;;;;15.20;9.93;;;;;;;;;;4983511;28;20121;-79
2023/12/01 13:10:48;;;;;;;25.60;14.07;;;;;;;;;;4983853;28;20043;-79
2023/12/01 13:13:14;;;;;;;21.75;12.55;;;;;;;;;;4982692;28;20038;-80
2023/12/01 13:15:40;;;;;;;20.92;13.30;;;;;;;;;;4982238;28;20043;-79
2023/12/01 13:18:07;;;;;;;14.00;7.85;;;;;;;;;;4978334;28;20046;-80
2023/12/01 13:20:33;;;;;;;16.23;10.65;;;;;;;;;;4962412;28;20053;-80
2023/12/01 13:22:59;;;;;;;19.30;12.82;;;;;;;;;;4982313;28;20456;-80
2023/12/01 13:25:25;;;;;;;19.13;11.07;;;;;;;;;;4966260;28;20085;-80
2023/12/01 13:27:51;;;;;;;39.38;22.67;;;;;;;;;;4982175;28;20050;-81
2023/12/01 13:30:17;;;;;;;32.10;17.88;;;;;;;;;;4982603;28;20271;-80
2023/12/01 13:32:44;;;;;;;33.38;19.25;;;;;;;;;;4982982;28;20047;-78
2023/12/01 13:35:10;;;;;;;17.17;10.40;;;;;;;;;;4952148;28;20057;-80
2023/12/01 13:37:38;;;;;;;22.35;13.88;;;;;;;;;;4986566;28;20663;-79
2023/12/01 13:40:04;;;;;;;24.45;15.68;;;;;;;;;;4987876;28;20050;-78
2023/12/01 13:42:30;;;;;;;30.45;17.20;;;;;;;;;;4988881;28;20054;-79
2023/12/01 13:44:57;;;;;;;22.65;12.57;;;;;;;;;;4986648;28;20050;-80
2023/12/01 13:47:23;;;;;;;17.35;11.98;;;;;;;;;;4980771;28;20542;-78
2023/12/01 13:49:49;;;;;;;34.42;17.38;;;;;;;;;;4979664;28;20050;-80
2023/12/01 13:52:15;;;;;;;35.58;21.33;;;;;;;;;;4980441;28;20058;-80
2023/12/01 13:54:42;;;;;;;39.10;22.58;;;;;;;;;;4948174;28;20053;-80
2023/12/01 13:57:08;;;;;;;29.83;15.88;;;;;;;;;;4979987;28;20632;-80
2023/12/01 13:59:34;;;;;;;32.70;18.35;;;;;;;;;;4979807;28;20074;-79
2023/12/01 14:02:00;;;;;;;37.05;18.63;;;;;;;;;;4980073;28;20038;-79
2023/12/01 14:04:25;;;;;;;30.05;17.80;;;;;;;;;;4978497;28;20046;-80
2023/12/01 14:06:51;;;;;;;15.50;11.07;;;;;;;;;;4979129;28;20425;-79
2023/12/01 14:09:17;;;;;;;41.45;23.08;;;;;;;;;;4963496;28;20054;-80
2023/12/01 14:11:43;;;;;;;27.02;15.02;;;;;;;;;;4976551;28;20035;-79
2023/12/01 14:14:10;;;;;;;27.38;15.25;;;;;;;;;;4978772;28;20164;-81
2023/12/01 14:16:36;;;;;;;20.40;14.32;;;;;;;;;;4994490;28;20049;-81
2023/12/01 14:19:02;;;;;;;12.23;9.15;;;;;;;;;;4974536;28;20043;-81
2023/12/01 14:21:28;;;;;;;33.17;18.75;;;;;;;;;;4965734;28;20045;-79
2023/12/01 14:23:54;;;;;;;20.80;12.27;;;;;;;;;;4950478;28;20054;-80
2023/12/01 14:26:21;;;;;;;28.83;15.02;;;;;;;;;;4950868;28;20031;-81
2023/12/01 14:28:47;;;;;;;29.88;14.38;;;;;;;;;;4959636;28;20111;-81
2023/12/01 14:31:13;;;;;;;29.73;13.98;;;;;;;;;;4988109;28;20030;-81
2023/12/01 14:33:40;;;;;;;16.02;12.52;;;;;;;;;;4984470;28;20047;-81
2023/12/01 14:36:06;;;;;;;25.48;13.73;;;;;;;;;;4956189;28;20038;-81
2023/12/01 14:38:32;;;;;;;15.38;11.95;;;;;;;;;;4980492;28;20082;-80
2023/12/01 14:40:58;;;;;;;24.40;13.73;;;;;;;;;;4929697;28;20035;-79
2023/12/01 14:43:24;;;;;;;29.83;14.98;;;;;;;;;;4966320;28;20058;-78
2023/12/01 14:45:50;;;;;;;17.98;12.00;;;;;;;;;;4992445;28;20039;-80
2023/12/01 14:48:16;;;;;;;23.17;13.98;;;;;;;;;;4989047;28;20058;-79
2023/12/01 14:50:46;;;;;;;19.52;12.75;;;;;;;;;;4987209;28;20043;-80
2023/12/01 14:53:12;;;;;;;21.00;12.35;;;;;;;;;;4968469;28;20110;-82
2023/12/01 14:55:38;;;;;;;22.33;14.40;;;;;;;;;;4972469;28;20514;-82
2023/12/01 14:58:04;;;;;;;30.60;18.23;;;;;;;;;;4962712;28;20061;-81
2023/12/01 15:00:31;;;;;;;21.20;12.98;;;;;;;;;;4979242;28;20043;-80
2023/12/01 15:02:56;;;;;;;24.23;14.73;;;;;;;;;;4976887;28;20055;-79
2023/12/01 15:05:22;;;;;;;19.20;13.20;;;;;;;;;;4974087;29;20047;-82
2023/12/01 15:07:48;;;;;;;13.45;7.05;;;;;;;;;;4975757;29;20077;-82
2023/12/01 15:10:14;;;;;;;31.23;17.17;;;;;;;;;;4982531;28;21064;-82
2023/12/01 15:12:40;;;;;;;37.08;20.13;;;;;;;;;;4991500;28;20051;-83
2023/12/01 15:15:06;;;;;;;20.63;12.15;;;;;;;;;;4978780;28;20058;-82
2023/12/01 18:30:48;;;;;;;16.60;10.30;;;;;;;;;;4975912;28;20043;-79
2023/12/01 18:33:14;;;;;;;16.35;10.00;;;;;;;;;;4977600;28;20049;-79
2023/12/01 18:35:40;;;;;;;21.90;9.65;;;;;;;;;;4973225;28;20073;-80
2023/12/01 18:38:07;;;;;;;24.60;10.75;;;;;;;;;;4975300;28;20039;-80
2023/12/01 18:40:33;;;;;;;21.83;12.10;;;;;;;;;;4962083;28;20057;-80
2023/12/01 18:42:58;;;;;;;26.17;14.05;;;;;;;;;;4967236;28;20047;-80
2023/12/01 18:45:24;;;;;;;18.77;13.18;;;;;;;;;;4968943;28;20034;-80
2023/12/01 18:47:52;;;;;;;15.43;10.38;;;;;;;;;;4975168;28;20403;-80
2023/12/01 18:50:17;;;;;;;15.43;10.27;;;;;;;;;;4983710;28;20035;-81
2023/12/01 18:52:44;;;;;;;24.88;13.52;;;;;;;;;;4961446;28;20130;-81